»·PEaware :: SKW5954 KMYF-KSNA

SKW5954 :: KMYF-KSNA

FLIGHT INFORMATION

Flight Status: Arrived
Operator:
SkyWest Airlines
More flights by this operator :: More flights under this callsign
Pilot: Joshua M. (19482)
Aircraft: CANADAIR CL-600 CRJ-200
(CRJ2)
More flights by this aircraft type
Origin: KMYF Montgomery
United States
Destination: KSNA John Wayne-Orange Co
United States
More flights between these airports :: More routes between these airports
Route: MZB293 SLI148 SLI
File this flight plan on PilotEdge
Remarks: Trying to join the traffic from SFO to SNA
Altitude:
(Current/Filed)
10,000ft
Speed:
(Current/Filed)
450kts
Departed: 27-Jun-19 03:01 PM
Arrived: 27-Jun-19 03:35 PM
Distance/Time
Traveled:
63nm/0:34
Distance/Time
To Go:
Arrived

Flight Plot

Page will automatically refresh every two minutes.


Map Options




Map Legend


Flown Route
Filed Route
Departure Airport
Arrival Airport
Navaid (VOR, NDB)
Fix

Horizontal Profiles

Position Reports

Time Latitude Longitude Heading Altitude Ground
Speed
27-Jun-19 14:44 32.813389 -117.139651 359 419ft 0kts
27-Jun-19 14:45 32.813393 -117.139652 359 419ft 0kts
27-Jun-19 14:46 32.813190 -117.140111 69 418ft 2kts
27-Jun-19 14:47 32.812998 -117.140490 359 418ft 0kts
27-Jun-19 14:48 32.812998 -117.140490 359 418ft 0kts
27-Jun-19 14:49 32.812998 -117.140490 359 418ft 0kts
27-Jun-19 14:50 32.812998 -117.140490 359 418ft 0kts
27-Jun-19 14:51 32.812998 -117.140490 359 418ft 0kts
27-Jun-19 14:52 32.812998 -117.140490 359 418ft 0kts
27-Jun-19 14:53 32.812998 -117.140490 359 418ft 0kts
27-Jun-19 14:54 32.812998 -117.140490 359 418ft 0kts
27-Jun-19 14:55 32.813129 -117.139876 86 419ft 7kts
27-Jun-19 14:56 32.813502 -117.139431 12 420ft 7kts
27-Jun-19 14:57 32.812509 -117.135968 117 420ft 27kts
27-Jun-19 14:58 32.811245 -117.132414 51 420ft 0kts
27-Jun-19 14:59 32.812418 -117.131245 25 424ft 14kts
27-Jun-19 15:00 32.825451 -117.166808 280 1472ft 233kts
27-Jun-19 15:01 32.838527 -117.241739 281 2904ft 231kts
27-Jun-19 15:02 32.851833 -117.317324 282 5239ft 236kts
27-Jun-19 15:03 32.871119 -117.391661 313 6899ft 244kts
27-Jun-19 15:04 32.916672 -117.451369 312 9383ft 253kts
27-Jun-19 15:06 32.969928 -117.521193 312 9921ft 335kts
27-Jun-19 15:07 33.040262 -117.613383 312 10026ft 389kts
27-Jun-19 15:08 33.116259 -117.699340 338 9901ft 375kts
27-Jun-19 15:09 33.211506 -117.735301 336 9892ft 330kts
27-Jun-19 15:10 33.285800 -117.777578 335 9895ft 263kts
27-Jun-19 15:11 33.343073 -117.809254 334 9895ft 224kts
27-Jun-19 15:12 33.397130 -117.839340 334 9916ft 231kts
27-Jun-19 15:13 33.457027 -117.872649 335 9923ft 278kts
27-Jun-19 15:14 33.537737 -117.917581 335 9908ft 331kts
27-Jun-19 15:15 33.617180 -117.961879 335 9900ft 298kts
27-Jun-19 15:16 33.686604 -118.000662 335 9902ft 267kts
27-Jun-19 15:17 33.750907 -118.030241 328 9532ft 254kts
27-Jun-19 15:18 33.812691 -118.057873 24 8288ft 251kts
27-Jun-19 15:19 33.827507 -117.986023 101 6991ft 246kts
27-Jun-19 15:20 33.814286 -117.909140 101 5913ft 238kts
27-Jun-19 15:21 33.779421 -117.866986 189 5916ft 231kts
27-Jun-19 15:22 33.735448 -117.916068 226 5911ft 226kts
27-Jun-19 15:23 33.748363 -117.969422 348 5864ft 222kts
27-Jun-19 15:24 33.805252 -117.948346 21 5065ft 220kts
27-Jun-19 15:24 33.850845 -117.926484 21 4144ft 217kts
27-Jun-19 15:26 33.908420 -117.887156 75 2929ft 207kts
27-Jun-19 15:27 33.902687 -117.825715 111 2916ft 186kts
27-Jun-19 15:27 33.886080 -117.775974 111 2919ft 219kts
27-Jun-19 15:28 33.849738 -117.720501 173 2912ft 241kts
27-Jun-19 15:30 33.806221 -117.771021 242 2850ft 176kts
27-Jun-19 15:30 33.783127 -117.806402 182 2234ft 156kts
27-Jun-19 15:31 33.747889 -117.823076 207 1379ft 135kts
27-Jun-19 15:32 33.714444 -117.844276 207 797ft 136kts
27-Jun-19 15:33 33.680961 -117.865474 207 87ft 135kts
27-Jun-19 15:34 33.669252 -117.871797 135 61ft 12kts
27-Jun-19 15:35 33.673197 -117.867380 35 61ft 22kts
27-Jun-19 15:36 33.673483 -117.866086 119 61ft 0kts
27-Jun-19 15:37 33.673484 -117.866086 119 61ft 0kts
27-Jun-19 15:38 33.673484 -117.866086 119 61ft 0kts
27-Jun-19 15:39 33.673484 -117.866086 119 61ft 0kts

Navigation Log

Ident Type
Flight plan parsing failed, navigation log unavailable